Terminal Aerodrome Forecast
Issued by NWS

Home | Current Version | Previous Version | Text Only | Print | Product List | Glossary On
Versions: 1 2 3 4 5 6 7 8 9 10 11 12 13 14 15
000
FTUS41 KBOX 111134
TAFFMH
TAF
KFMH 111134Z 1112/1212 26007KT P6SM OVC035
     FM111400 26010G19KT P6SM OVC040
     FM111700 27010G20KT P6SM SCT110
     FM112000 27009KT P6SM FEW150
     FM120000 VRB03KT P6SM BKN030=

USA.gov is the U.S. government's official web portal to all federal, state and local government web resources and services.